Time;durP1;ratioP1;P1;durP2;ratioP2;P2;SDS_P1;SDS_P2;PMS_P1;PMS_P2;Temp;Humidity;BMP_temperature;BMP_pressure;BME280_temperature;BME280_humidity;BME280_pressure;Samples;Min_cycle;Max_cycle;Signal;HPM_P1;HPM_P2
2022/05/18 00:02:24;;;;;;;;;;;;;;;16.97;69.83;100288.75;6259519;22;19912;-93
2022/05/18 00:04:53;;;;;;;;;;;;;;;17.04;69.70;100288.75;6230490;22;19968;-94
2022/05/18 00:07:23;;;;;;;;;;;;;;;17.07;69.42;100285.63;6251245;22;19918;-95
2022/05/18 00:09:51;;;;;;;;;;;;;;;17.05;69.37;100290.44;6222239;22;19935;-94
2022/05/18 00:12:24;;;;;;;;;;;;;;;17.06;68.96;100282.06;6220275;23;20002;-91
2022/05/18 00:14:52;;;;;;;;;;;;;;;17.02;69.47;100290.84;6220556;22;19919;-94
2022/05/18 00:17:22;;;;;;;;;;;;;;;17.05;68.78;100285.00;6230695;22;20033;-95
2022/05/18 00:19:56;;;;;;;;;;;;;;;17.07;68.91;100281.03;6155733;23;19919;-95
2022/05/18 00:22:31;;;;;;;;;;;;;;;17.01;68.63;100284.56;6247608;23;19912;-96
2022/05/18 00:25:22;;;;;;;;;;;;;;;17.04;68.59;100275.16;6232535;22;19922;-96
2022/05/18 00:27:49;;;;;;;;;;;;;;;17.02;68.64;100279.97;6200310;23;20002;-94
2022/05/18 00:31:10;;;;;;;;;;;;;;;17.08;68.55;100279.97;6241650;23;19916;-95
2022/05/18 00:33:40;;;;;;;;;;;;;;;17.04;68.51;100303.19;6216062;22;19946;-92
2022/05/18 00:36:10;;;;;;;;;;;;;;;16.71;69.52;100343.06;6240528;23;19911;-93
2022/05/18 00:38:47;;;;;;;;;;;;;;;16.58;69.95;100339.31;6215346;23;20336;-92
2022/05/18 00:41:19;;;;;;;;;;;;;;;16.81;69.44;100344.34;6247919;23;20253;-92
2022/05/18 00:43:53;;;;;;;;;;;;;;;16.76;69.78;100345.97;6261938;22;19914;-93
2022/05/18 00:46:19;;;;;;;;;;;;;;;16.91;68.99;100345.81;6262499;22;19919;-91
2022/05/18 00:48:50;;;;;;;;;;;;;;;17.04;67.69;100332.19;6192876;23;20351;-92
2022/05/18 00:51:21;;;;;;;;;;;;;;;17.30;66.07;100334.00;6209967;23;19923;-94
2022/05/18 00:53:51;;;;;;;;;;;;;;;17.48;65.45;100322.47;6263179;22;19904;-93
2022/05/18 00:56:24;;;;;;;;;;;;;;;17.60;64.42;100328.06;6215821;23;19912;-94
2022/05/18 00:58:55;;;;;;;;;;;;;;;17.71;63.52;100324.69;6215363;23;20293;-93
2022/05/18 01:01:23;;;;;;;;;;;;;;;17.81;62.38;100319.66;6245392;23;19912;-95
2022/05/18 01:04:01;;;;;;;;;;;;;;;17.89;62.22;100316.69;6239008;23;19911;-94
2022/05/18 01:06:36;;;;;;;;;;;;;;;17.89;62.11;100322.13;6218647;23;20233;-94
2022/05/18 01:09:22;;;;;;;;;;;;;;;17.92;61.92;100318.13;6216049;23;19947;-95
2022/05/18 01:11:48;;;;;;;;;;;;;;;18.01;61.86;100305.13;6237797;23;19931;-94
2022/05/18 01:14:14;;;;;;;;;;;;;;;18.03;61.73;100297.59;6191593;23;19963;-90
2022/05/18 01:16:50;;;;;;;;;;;;;;;18.05;61.65;100300.91;6232759;22;19904;-90
2022/05/18 01:19:45;;;;;;;;;;;;;;;18.06;61.51;100306.13;6259606;23;19912;-91
2022/05/18 01:22:26;;;;;;;;;;;;;;;18.08;61.63;100295.88;6266948;22;19908;-89
2022/05/18 01:24:54;;;;;;;;;;;;;;;18.09;61.54;100296.69;6266323;22;19916;-90
2022/05/18 01:27:20;;;;;;;;;;;;;;;18.09;61.68;100313.00;6240427;22;19926;-89
2022/05/18 01:29:49;;;;;;;;;;;;;;;18.14;61.42;100321.34;6233864;23;20341;-91
2022/05/18 01:32:14;;;;;;;;;;;;;;;18.08;61.78;100325.78;6222805;23;19985;-91
2022/05/18 01:34:44;;;;;;;;;;;;;;;18.08;62.16;100317.63;6198547;23;19911;-90
2022/05/18 01:37:10;;;;;;;;;;;;;;;18.02;62.27;100344.84;6244944;23;19908;-92
2022/05/18 01:39:45;;;;;;;;;;;;;;;17.98;62.55;100360.78;6194253;23;19912;-91
2022/05/18 01:42:34;;;;;;;;;;;;;;;17.96;62.65;100392.81;6199638;23;19936;-90
2022/05/18 01:44:59;;;;;;;;;;;;;;;17.81;63.53;100439.28;6235235;22;19956;-90
2022/05/18 01:47:26;;;;;;;;;;;;;;;17.79;64.06;100444.06;6193180;22;19916;-89
2022/05/18 01:50:01;;;;;;;;;;;;;;;17.72;64.35;100457.69;6193818;23;19915;-90
2022/05/18 01:52:32;;;;;;;;;;;;;;;17.71;64.81;100468.78;6250639;22;19918;-88
2022/05/18 01:54:58;;;;;;;;;;;;;;;17.77;64.81;100473.38;6215171;22;19903;-88
2022/05/18 01:57:23;;;;;;;;;;;;;;;17.77;64.93;100473.38;6192061;23;20061;-90
2022/05/18 01:59:48;;;;;;;;;;;;;;;17.80;65.16;100429.44;6216671;23;19912;-90
2022/05/18 02:02:15;;;;;;;;;;;;;;;17.70;65.33;100386.41;6218213;23;19916;-90
2022/05/18 02:04:45;;;;;;;;;;;;;;;17.62;67.78;100399.38;6219027;22;20354;-93
2022/05/18 02:07:13;;;;;;;;;;;;;;;17.41;69.03;100404.00;6240909;23;19912;-91
2022/05/18 02:09:43;;;;;;;;;;;;;;;17.20;70.38;100429.53;6215659;22;20275;-92
2022/05/18 02:12:13;;;;;;;;;;;;;;;17.00;72.34;100440.44;6239437;23;19939;-91
2022/05/18 02:14:39;;;;;;;;;;;;;;;16.91;73.08;100436.25;6222403;22;19918;-91
2022/05/18 02:17:06;;;;;;;;;;;;;;;16.74;74.06;100437.63;6263683;22;19916;-92
2022/05/18 02:19:32;;;;;;;;;;;;;;;16.73;73.39;100438.69;6241066;23;19899;-93
2022/05/18 02:21:58;;;;;;;;;;;;;;;16.66;73.67;100416.97;6215405;22;19931;-93
2022/05/18 02:24:26;;;;;;;;;;;;;;;16.61;73.55;100414.88;6224357;22;19911;-90
2022/05/18 02:26:53;;;;;;;;;;;;;;;16.57;73.73;100407.34;6223968;22;19912;-89
2022/05/18 02:29:19;;;;;;;;;;;;;;;16.61;73.29;100390.44;6219271;23;19911;-92
2022/05/18 02:31:46;;;;;;;;;;;;;;;16.59;73.15;100400.66;6249811;23;19912;-92
2022/05/18 02:34:11;;;;;;;;;;;;;;;16.58;73.87;100401.72;6260282;22;19919;-93
2022/05/18 02:36:38;;;;;;;;;;;;;;;16.59;73.84;100403.38;6215550;22;19953;-93
2022/05/18 02:39:07;;;;;;;;;;;;;;;16.60;73.66;100402.34;6243101;22;19918;-93
2022/05/18 02:41:36;;;;;;;;;;;;;;;16.59;74.32;100406.09;6239902;22;19911;-94
2022/05/18 02:44:02;;;;;;;;;;;;;;;16.72;73.73;100409.91;6255655;22;19922;-94
2022/05/18 02:46:35;;;;;;;;;;;;;;;16.66;74.35;100385.22;6234096;22;19916;-93
2022/05/18 02:49:02;;;;;;;;;;;;;;;16.67;73.45;100389.63;6265418;22;19930;-93
2022/05/18 02:51:35;;;;;;;;;;;;;;;16.65;74.62;100383.56;6257461;22;19998;-92
2022/05/18 02:56:05;;;;;;;;;;;;;;;16.59;74.77;100378.97;6229639;22;19927;-91
2022/05/18 02:56:48;;;;;;;;;;;;;;;16.56;74.78;100375.84;6246144;22;19926;-94
2022/05/18 02:59:17;;;;;;;;;;;;;;;16.56;74.78;100379.38;6243849;23;19945;-95
2022/05/18 03:01:43;;;;;;;;;;;;;;;16.56;74.90;100383.97;6187707;22;19920;-93
2022/05/18 03:04:09;;;;;;;;;;;;;;;16.58;75.04;100382.72;6188702;22;19926;-94
2022/05/18 03:06:36;;;;;;;;;;;;;;;16.45;75.54;100396.25;6224538;22;20204;-93
2022/05/18 03:09:02;;;;;;;;;;;;;;;16.48;75.23;100395.84;6189248;22;20339;-91
2022/05/18 03:11:29;;;;;;;;;;;;;;;16.51;74.51;100400.88;6191250;22;19930;-92
2022/05/18 03:13:57;;;;;;;;;;;;;;;16.48;75.13;100376.03;6241613;23;19954;-94
2022/05/18 03:16:25;;;;;;;;;;;;;;;16.58;75.05;100363.72;6216157;22;20019;-93
2022/05/18 03:18:51;;;;;;;;;;;;;;;16.65;75.52;100355.59;6221588;22;19903;-93
2022/05/18 03:24:05;;;;;;;;;;;;;;;16.66;75.13;100347.22;6218493;22;19922;-91
2022/05/18 03:26:35;;;;;;;;;;;;;;;16.60;74.63;100350.78;6241851;23;19919;-90
2022/05/18 03:29:02;;;;;;;;;;;;;;;16.62;75.19;100356.84;6244303;22;19919;-91
2022/05/18 03:31:28;;;;;;;;;;;;;;;16.71;74.98;100367.50;6187898;22;19951;-92
2022/05/18 03:34:00;;;;;;;;;;;;;;;16.78;74.37;100387.31;6214500;22;19912;-90
2022/05/18 03:36:27;;;;;;;;;;;;;;;16.60;75.01;100390.63;6238828;22;19960;-93
2022/05/18 03:38:52;;;;;;;;;;;;;;;16.51;75.09;100400.88;6211629;22;20279;-91
2022/05/18 03:41:27;;;;;;;;;;;;;;;16.72;74.45;100416.16;6217065;22;20002;-94
2022/05/18 03:43:52;;;;;;;;;;;;;;;16.73;73.35;100411.56;6248025;22;19918;-89
2022/05/18 03:46:18;;;;;;;;;;;;;;;16.99;73.30;100410.75;6187415;22;19919;-92
2022/05/18 03:48:46;;;;;;;;;;;;;;;17.07;72.86;100430.41;6218230;23;20332;-92
2022/05/18 03:51:16;;;;;;;;;;;;;;;17.14;71.58;100430.41;6210315;22;19912;-92
2022/05/18 03:53:57;;;;;;;;;;;;;;;17.05;72.31;100446.06;6247732;22;19919;-92
2022/05/18 03:56:24;;;;;;;;;;;;;;;17.02;73.70;100454.63;6235769;22;19915;-94
2022/05/18 03:58:55;;;;;;;;;;;;;;;16.98;73.23;100458.81;6198265;22;19922;-96
2022/05/18 04:01:26;;;;;;;;;;;;;;;17.15;72.90;100464.66;6221600;22;19983;-91
2022/05/18 04:03:56;;;;;;;;;;;;;;;16.83;73.98;100463.56;6214854;22;20246;-93
2022/05/18 04:06:21;;;;;;;;;;;;;;;17.07;72.18;100463.00;6213635;22;19940;-91
2022/05/18 04:08:49;;;;;;;;;;;;;;;17.13;72.71;100466.75;6219173;23;19912;-91
2022/05/18 04:11:18;;;;;;;;;;;;;;;17.21;71.78;100468.44;6239505;22;20324;-92
2022/05/18 04:13:45;;;;;;;;;;;;;;;17.20;71.98;100466.75;6216573;22;19993;-93
2022/05/18 04:16:12;;;;;;;;;;;;;;;17.20;72.10;100466.75;6249451;22;20282;-80
2022/05/18 04:18:38;;;;;;;;;;;;;;;17.36;71.13;100477.19;6237952;23;19912;-87
2022/05/18 04:21:06;;;;;;;;;;;;;;;17.25;71.28;100470.50;6213213;22;19995;-85
2022/05/18 04:23:32;;;;;;;;;;;;;;;17.31;71.29;100457.97;6244049;22;19994;-86
2022/05/18 04:25:59;;;;;;;;;;;;;;;17.25;71.78;100456.91;6188059;22;20091;-86
2022/05/18 04:28:25;;;;;;;;;;;;;;;17.33;72.01;100465.91;6213590;22;20007;-85
2022/05/18 04:30:52;;;;;;;;;;;;;;;17.34;72.18;100462.97;6188153;22;19911;-90
2022/05/18 04:33:20;;;;;;;;;;;;;;;17.56;71.24;100462.72;6239504;22;19915;-83
2022/05/18 04:35:48;;;;;;;;;;;;;;;17.45;70.59;100459.63;6213578;23;19931;-84
2022/05/18 04:38:14;;;;;;;;;;;;;;;17.46;71.15;100461.28;6237020;22;19919;-85
2022/05/18 04:40:41;;;;;;;;;;;;;;;17.44;71.90;100457.97;6237185;22;20192;-84
2022/05/18 04:43:13;;;;;;;;;;;;;;;17.52;71.56;100457.72;6236523;22;19915;-84
2022/05/18 04:45:52;;;;;;;;;;;;;;;17.69;70.07;100460.00;6214015;22;19916;-86
2022/05/18 04:48:19;;;;;;;;;;;;;;;17.87;70.01;100471.06;6225964;22;19994;-84
2022/05/18 04:50:45;;;;;;;;;;;;;;;18.05;70.70;100469.53;6212914;22;19916;-86
2022/05/18 04:53:10;;;;;;;;;;;;;;;17.99;69.05;100471.25;6188114;22;20308;-86
2022/05/18 04:55:37;;;;;;;;;;;;;;;18.11;69.00;100469.53;6217898;23;19937;-84
2022/05/18 04:58:03;;;;;;;;;;;;;;;18.09;69.95;100473.50;6224851;22;19916;-84
2022/05/18 05:00:30;;;;;;;;;;;;;;;18.20;70.00;100482.91;6238737;23;19915;-85
2022/05/18 05:02:57;;;;;;;;;;;;;;;18.38;69.20;100487.63;6215021;22;19912;-83
2022/05/18 05:05:24;;;;;;;;;;;;;;;18.41;67.64;100489.94;6238713;22;19918;-83
2022/05/18 05:07:49;;;;;;;;;;;;;;;18.33;66.62;100480.09;6239782;23;19911;-85
2022/05/18 05:10:18;;;;;;;;;;;;;;;18.17;67.69;100481.44;6214030;22;20380;-84
2022/05/18 05:12:46;;;;;;;;;;;;;;;18.08;67.87;100491.72;6239352;23;19919;-83
2022/05/18 05:15:13;;;;;;;;;;;;;;;18.00;67.85;100486.50;6212128;22;19911;-83
2022/05/18 05:17:39;;;;;;;;;;;;;;;17.92;68.72;100490.31;6212763;22;19923;-84
2022/05/18 05:20:07;;;;;;;;;;;;;;;17.85;69.34;100502.25;6212236;22;19915;-81
2022/05/18 05:22:33;;;;;;;;;;;;;;;17.74;69.41;100511.84;6212903;23;19987;-87
2022/05/18 05:25:01;;;;;;;;;;;;;;;17.63;69.85;100526.94;6213828;23;19922;-85
2022/05/18 05:27:26;;;;;;;;;;;;;;;17.61;69.95;100533.63;6238275;22;19930;-87
2022/05/18 05:29:52;;;;;;;;;;;;;;;17.50;69.87;100533.19;6212554;22;19920;-87
2022/05/18 05:32:19;;;;;;;;;;;;;;;17.50;70.21;100538.63;6215006;22;19915;-84
2022/05/18 05:34:45;;;;;;;;;;;;;;;17.37;69.95;100535.94;6188557;22;19912;-88
2022/05/18 05:37:12;;;;;;;;;;;;;;;17.25;69.40;100545.72;6212794;23;19912;-85
2022/05/18 05:39:37;;;;;;;;;;;;;;;17.18;69.28;100563.91;6238668;23;19918;-88
2022/05/18 05:42:03;;;;;;;;;;;;;;;16.79;68.63;100573.66;6212566;23;19939;-89
2022/05/18 05:44:29;;;;;;;;;;;;;;;16.76;68.99;100576.72;6190545;23;20137;-87
2022/05/18 05:46:56;;;;;;;;;;;;;;;16.46;69.17;100585.19;6254464;22;19908;-89
2022/05/18 05:49:23;;;;;;;;;;;;;;;16.41;70.36;100582.22;6228550;22;19935;-89
2022/05/18 05:51:49;;;;;;;;;;;;;;;16.12;69.73;100605.84;6217010;23;20340;-86
2022/05/18 05:54:14;;;;;;;;;;;;;;;15.89;70.62;100599.84;6245017;23;19934;-89
2022/05/18 05:56:41;;;;;;;;;;;;;;;15.69;70.11;100595.06;6199637;23;19956;-85
2022/05/18 05:59:09;;;;;;;;;;;;;;;15.32;70.58;100599.75;6229376;22;20332;-87
2022/05/18 06:01:36;;;;;;;;;;;;;;;15.15;71.36;100603.75;6245328;23;20384;-86
2022/05/18 06:04:07;;;;;;;;;;;;;;;14.88;71.93;100594.47;6222616;23;19912;-84
2022/05/18 06:06:35;;;;;;;;;;;;;;;14.76;71.82;100604.97;6219396;22;19949;-88
2022/05/18 06:09:01;;;;;;;;;;;;;;;14.74;73.13;100613.25;6190040;22;19912;-85
2022/05/18 06:11:27;;;;;;;;;;;;;;;14.55;72.63;100601.16;6221422;23;19922;-86
2022/05/18 06:13:57;;;;;;;;;;;;;;;14.30;72.30;100591.63;6240289;23;19935;-85
2022/05/18 06:16:38;;;;;;;;;;;;;;;14.29;73.20;100600.78;6240221;23;20264;-86
2022/05/18 06:19:04;;;;;;;;;;;;;;;14.08;72.84;100618.56;6241063;23;20506;-85
2022/05/18 06:21:36;;;;;;;;;;;;;;;13.98;72.70;100614.44;6212758;23;19911;-87
2022/05/18 06:24:02;;;;;;;;;;;;;;;13.91;72.31;100620.59;6245469;23;19995;-88
2022/05/18 06:26:29;;;;;;;;;;;;;;;13.78;72.52;100620.38;6189956;23;19912;-86
2022/05/18 06:28:55;;;;;;;;;;;;;;;13.77;73.12;100609.78;6212711;23;19952;-84
2022/05/18 06:31:20;;;;;;;;;;;;;;;13.73;72.43;100623.63;6212449;23;20039;-85
2022/05/18 06:33:52;;;;;;;;;;;;;;;13.72;74.03;100632.78;6240972;23;20289;-85
2022/05/18 06:36:26;;;;;;;;;;;;;;;13.78;74.50;100617.69;6212156;23;19912;-86
2022/05/18 06:38:53;;;;;;;;;;;;;;;13.73;73.25;100645.25;6238211;23;19919;-88
2022/05/18 06:41:21;;;;;;;;;;;;;;;13.66;73.70;100651.56;6216192;23;19912;-85
2022/05/18 06:43:57;;;;;;;;;;;;;;;13.67;73.74;100643.28;6239628;23;19919;-85
2022/05/18 06:46:24;;;;;;;;;;;;;;;13.63;73.74;100676.25;6215526;23;20319;-86
2022/05/18 06:48:49;;;;;;;;;;;;;;;13.59;71.89;100681.16;6205568;23;19915;-82
2022/05/18 06:51:20;;;;;;;;;;;;;;;13.58;71.30;100684.91;6246438;23;19915;-86
2022/05/18 06:53:47;;;;;;;;;;;;;;;13.52;70.61;100689.13;6188703;23;20042;-84
2022/05/18 06:56:12;;;;;;;;;;;;;;;13.49;71.47;100696.78;6214029;23;19972;-82
2022/05/18 06:58:39;;;;;;;;;;;;;;;13.44;71.96;100709.97;6222269;23;19919;-84
2022/05/18 07:01:07;;;;;;;;;;;;;;;13.39;72.26;100713.22;6223168;23;19912;-86
2022/05/18 07:03:34;;;;;;;;;;;;;;;13.37;72.70;100739.56;6214308;22;19961;-83
2022/05/18 07:06:07;;;;;;;;;;;;;;;13.28;73.50;100725.25;6187139;23;20244;-86
2022/05/18 07:08:33;;;;;;;;;;;;;;;13.21;73.71;100740.44;6214208;23;19911;-79
2022/05/18 07:11:06;;;;;;;;;;;;;;;13.11;72.76;100742.53;6209821;23;19947;-82
2022/05/18 07:13:32;;;;;;;;;;;;;;;12.93;74.12;100752.72;6210103;23;20324;-81
2022/05/18 07:16:00;;;;;;;;;;;;;;;12.91;75.19;100752.03;6185781;23;19915;-81
2022/05/18 07:18:29;;;;;;;;;;;;;;;12.81;74.91;100750.38;6237504;23;19983;-80
2022/05/18 07:20:55;;;;;;;;;;;;;;;12.65;74.58;100763.91;6236743;23;19911;-80
2022/05/18 07:23:20;;;;;;;;;;;;;;;12.66;74.68;100757.50;6236926;22;19919;-81
2022/05/18 07:25:51;;;;;;;;;;;;;;;12.38;74.50;100754.34;6184263;23;20207;-80
2022/05/18 07:28:16;;;;;;;;;;;;;;;12.27;76.79;100768.16;6239223;23;20352;-81
2022/05/18 07:30:42;;;;;;;;;;;;;;;12.20;77.11;100781.50;6212248;23;19911;-81
2022/05/18 07:33:08;;;;;;;;;;;;;;;12.13;77.95;100786.72;6207805;23;19919;-84
2022/05/18 07:35:33;;;;;;;;;;;;;;;12.11;76.18;100795.97;6209245;23;19944;-85
2022/05/18 07:38:00;;;;;;;;;;;;;;;12.13;76.72;100805.56;6210752;23;19915;-84
2022/05/18 07:40:25;;;;;;;;;;;;;;;12.10;76.02;100807.75;6210906;22;19912;-84
2022/05/18 07:42:54;;;;;;;;;;;;;;;11.94;75.93;100824.72;6209314;23;19994;-84
2022/05/18 07:45:20;;;;;;;;;;;;;;;11.89;75.86;100819.00;6237445;23;19935;-84
2022/05/18 07:47:47;;;;;;;;;;;;;;;11.84;76.73;100804.13;6210995;23;19952;-85
2022/05/18 07:50:13;;;;;;;;;;;;;;;11.85;76.96;100831.94;6226960;23;20340;-82
2022/05/18 07:52:39;;;;;;;;;;;;;;;11.71;76.28;100844.19;6192994;23;19922;-82
2022/05/18 07:55:08;;;;;;;;;;;;;;;11.74;76.73;100834.94;6187821;23;19920;-84
2022/05/18 07:57:39;;;;;;;;;;;;;;;11.65;76.32;100831.38;6210108;23;19995;-84
2022/05/18 08:00:05;;;;;;;;;;;;;;;11.55;75.39;100855.75;6228572;22;19938;-83
2022/05/18 08:02:33;;;;;;;;;;;;;;;11.61;76.44;100860.50;6216388;23;19907;-85
2022/05/18 08:04:59;;;;;;;;;;;;;;;11.50;76.75;100863.47;6213821;23;20186;-85
2022/05/18 08:07:24;;;;;;;;;;;;;;;11.49;76.41;100894.09;6212284;23;20229;-83
2022/05/18 08:15:18;;;;;;;;;;;;;;;11.43;75.09;100883.97;6217402;22;19937;-83
2022/05/18 08:17:43;;;;;;;;;;;;;;;11.30;75.13;100892.47;6212391;22;20339;-80
2022/05/18 08:20:09;;;;;;;;;;;;;;;11.25;75.87;100910.97;6212718;22;19923;-82
2022/05/18 08:22:35;;;;;;;;;;;;;;;11.16;75.52;100893.06;6212336;22;20260;-81
2022/05/18 08:25:01;;;;;;;;;;;;;;;11.10;74.99;100926.84;6211393;22;19923;-80
2022/05/18 08:27:27;;;;;;;;;;;;;;;11.16;76.90;100947.72;6211496;22;20292;-81
2022/05/18 08:29:58;;;;;;;;;;;;;;;11.29;77.47;100973.41;6208852;23;19950;-83
2022/05/18 08:32:24;;;;;;;;;;;;;;;11.36;76.02;100985.22;6237242;22;19912;-82
2022/05/18 08:34:52;;;;;;;;;;;;;;;11.41;77.79;100999.06;6214621;22;19963;-82
2022/05/18 08:37:17;;;;;;;;;;;;;;;11.47;77.36;100997.56;6212944;22;19916;-81
2022/05/18 08:39:43;;;;;;;;;;;;;;;11.54;77.67;101006.69;6209848;23;19912;-80
2022/05/18 08:42:10;;;;;;;;;;;;;;;11.60;78.46;101009.59;6237728;23;19923;-80
2022/05/18 08:44:36;;;;;;;;;;;;;;;11.54;76.15;101006.69;6235544;23;20010;-82
2022/05/18 08:47:01;;;;;;;;;;;;;;;11.56;77.38;101023.53;6186791;23;19934;-81
2022/05/18 08:49:40;;;;;;;;;;;;;;;11.55;75.27;101011.09;6241814;23;19927;-82
2022/05/18 08:52:05;;;;;;;;;;;;;;;11.31;73.57;101007.22;6218217;23;20363;-84
2022/05/18 08:55:00;;;;;;;;;;;;;;;11.30;74.38;101034.28;6239635;23;19911;-80
2022/05/18 08:58:07;;;;;;;;;;;;;;;11.22;75.98;101034.25;6211603;22;19923;-82
2022/05/18 09:00:37;;;;;;;;;;;;;;;11.16;75.29;101035.69;6250730;23;19915;-81
2022/05/18 09:03:12;;;;;;;;;;;;;;;11.07;73.35;101034.78;6239292;23;20019;-82
2022/05/18 09:05:57;;;;;;;;;;;;;;;10.91;73.34;101022.06;6239710;22;19911;-80
2022/05/18 09:08:36;;;;;;;;;;;;;;;10.95;72.29;101025.25;6212348;23;19912;-83
2022/05/18 09:11:02;;;;;;;;;;;;;;;10.75;71.92;101017.34;6216805;22;19939;-83
2022/05/18 09:13:33;;;;;;;;;;;;;;;10.79;71.50;101015.19;6211892;23;19916;-84
2022/05/18 09:16:20;;;;;;;;;;;;;;;10.86;71.76;101015.41;6209905;23;19995;-81
2022/05/18 09:18:49;;;;;;;;;;;;;;;10.85;73.74;101019.97;6212253;23;19982;-81
2022/05/18 09:21:18;;;;;;;;;;;;;;;10.91;71.44;101013.97;6208866;23;19954;-83
2022/05/18 09:23:52;;;;;;;;;;;;;;;10.85;72.16;101016.44;6237228;23;19911;-82
2022/05/18 09:26:18;;;;;;;;;;;;;;;10.93;70.26;101011.13;6238143;23;19918;-84
2022/05/18 09:28:56;;;;;;;;;;;;;;;10.93;71.66;101038.00;6237999;23;20349;-84
2022/05/18 09:31:28;;;;;;;;;;;;;;;10.86;70.11;101031.56;6241841;23;19916;-82
2022/05/18 09:33:57;;;;;;;;;;;;;;;10.98;70.49;101051.88;6238846;23;19934;-84
2022/05/18 09:36:34;;;;;;;;;;;;;;;11.04;69.84;101032.41;6239848;23;20364;-81
2022/05/18 09:39:04;;;;;;;;;;;;;;;11.10;70.28;101053.31;6211467;23;19998;-81
2022/05/18 09:41:33;;;;;;;;;;;;;;;11.26;68.29;101043.69;6238059;23;20282;-83
2022/05/18 09:44:06;;;;;;;;;;;;;;;11.16;67.71;101039.22;6189356;23;19924;-81
2022/05/18 09:46:32;;;;;;;;;;;;;;;11.22;68.20;101053.94;6241020;23;20252;-83
2022/05/18 09:49:00;;;;;;;;;;;;;;;11.28;69.05;101039.00;6239616;23;19989;-81
2022/05/18 09:51:26;;;;;;;;;;;;;;;11.31;68.43;101042.22;6216932;23;19915;-80
2022/05/18 09:53:53;;;;;;;;;;;;;;;11.15;68.61;101044.78;6212453;23;19998;-84
2022/05/18 09:56:28;;;;;;;;;;;;;;;11.05;68.52;101062.84;6213551;23;19915;-81
2022/05/18 09:58:59;;;;;;;;;;;;;;;11.16;69.71;101066.13;6210644;23;19967;-83
2022/05/18 10:09:45;;;;;;;;;;;;;;;11.19;71.32;101103.53;6216264;23;20298;-82
2022/05/18 10:12:32;;;;;;;;;;;;;;;11.15;71.48;101102.13;6235688;22;19938;-80
2022/05/18 10:15:00;;;;;;;;;;;;;;;11.20;72.45;101126.75;6268065;22;19949;-82
2022/05/18 10:17:32;;;;;;;;;;;;;;;11.22;73.13;101125.75;6244260;22;20404;-82
2022/05/18 10:20:06;;;;;;;;;;;;;;;11.26;73.53;101138.75;6240974;22;19976;-82
2022/05/18 10:22:31;;;;;;;;;;;;;;;11.43;74.28;101142.44;6244570;22;19916;-83
2022/05/18 10:24:56;;;;;;;;;;;;;;;11.51;73.35;101155.94;6219715;22;19912;-83
2022/05/18 10:27:25;;;;;;;;;;;;;;;11.56;73.63;101156.31;6243652;22;20296;-84
2022/05/18 10:30:12;;;;;;;;;;;;;;;11.72;74.00;101162.88;6242715;22;19911;-81
2022/05/18 10:32:48;;;;;;;;;;;;;;;11.87;73.92;101171.22;6268289;22;20237;-82
2022/05/18 10:35:15;;;;;;;;;;;;;;;11.76;69.33;101175.03;6240463;22;19912;-82
2022/05/18 10:37:43;;;;;;;;;;;;;;;11.84;73.15;101172.38;6217216;22;19911;-81
2022/05/18 10:40:11;;;;;;;;;;;;;;;12.15;73.52;101196.22;6242596;22;19919;-82
2022/05/18 10:43:10;;;;;;;;;;;;;;;12.35;72.20;101202.25;6216452;22;19915;-80
2022/05/18 10:45:36;;;;;;;;;;;;;;;12.41;67.04;101204.31;6267154;22;19973;-82
2022/05/18 10:48:15;;;;;;;;;;;;;;;12.15;64.48;101210.56;6216211;22;19962;-79
2022/05/18 10:50:42;;;;;;;;;;;;;;;12.21;65.77;101211.75;6243264;22;19969;-79
2022/05/18 10:53:18;;;;;;;;;;;;;;;12.37;65.54;101217.25;6259328;22;19915;-79
2022/05/18 10:56:05;;;;;;;;;;;;;;;12.40;64.30;101222.31;6242874;22;19911;-80
2022/05/18 10:58:45;;;;;;;;;;;;;;;12.41;67.01;101217.81;6269828;22;19907;-83
2022/05/18 11:01:29;;;;;;;;;;;;;;;12.63;67.21;101222.63;6247389;22;19915;-81
2022/05/18 11:04:01;;;;;;;;;;;;;;;12.80;62.16;101222.72;6246375;22;19911;-82
2022/05/18 11:06:31;;;;;;;;;;;;;;;12.78;60.26;101230.97;6243318;22;19978;-79
2022/05/18 11:09:00;;;;;;;;;;;;;;;12.93;59.94;101244.69;6239855;22;20330;-81
2022/05/18 11:11:35;;;;;;;;;;;;;;;13.12;61.45;101237.34;6241497;22;20312;-84
2022/05/18 11:14:20;;;;;;;;;;;;;;;13.20;63.94;101245.47;6267404;22;19931;-80
2022/05/18 11:17:08;;;;;;;;;;;;;;;13.44;61.80;101242.03;6238941;22;19972;-81
2022/05/18 11:19:43;;;;;;;;;;;;;;;13.28;60.24;101242.84;6241022;22;20241;-81
2022/05/18 11:22:22;;;;;;;;;;;;;;;13.54;58.24;101237.31;6240683;22;19929;-83
2022/05/18 11:25:09;;;;;;;;;;;;;;;13.72;59.87;101234.47;6267741;22;19986;-80
2022/05/18 11:27:51;;;;;;;;;;;;;;;13.92;60.17;101246.63;6242554;22;20004;-81
2022/05/18 11:30:20;;;;;;;;;;;;;;;13.98;59.18;101247.84;6268543;22;20030;-82
2022/05/18 11:33:12;;;;;;;;;;;;;;;14.05;57.16;101251.56;6268344;22;20301;-82
2022/05/18 11:36:04;;;;;;;;;;;;;;;14.14;58.87;101260.47;6221703;22;19923;-80
2022/05/18 11:38:39;;;;;;;;;;;;;;;14.07;58.18;101260.34;6236533;22;19916;-81
2022/05/18 11:41:07;;;;;;;;;;;;;;;14.09;57.82;101257.44;6270191;22;19939;-83
2022/05/18 11:44:08;;;;;;;;;;;;;;;14.22;59.04;101262.34;6242366;22;20060;-82
2022/05/18 11:46:33;;;;;;;;;;;;;;;13.97;59.60;101251.53;6144815;23;19912;-84
2022/05/18 11:49:17;;;;;;;;;;;;;;;14.05;56.02;101254.25;6242234;22;20260;-86
2022/05/18 11:52:04;;;;;;;;;;;;;;;14.11;56.76;101255.41;6271901;22;19912;-84
2022/05/18 11:54:46;;;;;;;;;;;;;;;14.24;57.47;101271.16;6256635;22;20200;-81
2022/05/18 11:57:20;;;;;;;;;;;;;;;14.38;57.69;101256.94;6243706;22;19923;-82
2022/05/18 12:00:26;;;;;;;;;;;;;;;14.50;54.17;101271.78;6244456;22;19911;-85
2022/05/18 12:02:55;;;;;;;;;;;;;;;14.40;51.96;101265.72;6220273;22;19923;-83
2022/05/18 12:05:23;;;;;;;;;;;;;;;14.48;54.23;101260.28;6270398;22;19986;-85
2022/05/18 12:07:52;;;;;;;;;;;;;;;14.47;54.25;101260.44;6241119;22;20197;-82
2022/05/18 12:10:20;;;;;;;;;;;;;;;14.53;53.56;101260.59;6270722;22;20074;-83
2022/05/18 12:13:04;;;;;;;;;;;;;;;14.46;54.90;101275.84;6212649;22;19915;-84
2022/05/18 12:15:43;;;;;;;;;;;;;;;14.69;53.14;101270.59;6346868;22;19968;-83
2022/05/18 12:18:14;;;;;;;;;;;;;;;14.74;51.25;101268.19;6212689;22;19912;-82
2022/05/18 12:21:00;;;;;;;;;;;;;;;14.75;51.55;101269.91;6212200;23;19915;-82
2022/05/18 12:23:29;;;;;;;;;;;;;;;14.83;52.11;101266.31;6212640;22;19937;-83
2022/05/18 12:25:58;;;;;;;;;;;;;;;14.82;53.17;101275.47;6212929;22;19963;-84
2022/05/18 12:28:27;;;;;;;;;;;;;;;14.94;53.10;101274.06;6239616;22;19908;-84
2022/05/18 12:30:53;;;;;;;;;;;;;;;14.81;53.46;101267.50;6241982;23;19930;-84
2022/05/18 12:33:29;;;;;;;;;;;;;;;15.05;53.76;101285.53;6214300;22;19946;-86
2022/05/18 12:36:02;;;;;;;;;;;;;;;15.17;53.77;101286.81;6243767;22;19912;-87
2022/05/18 12:38:32;;;;;;;;;;;;;;;15.25;53.54;101292.22;6193819;23;20355;-85
2022/05/18 12:41:03;;;;;;;;;;;;;;;15.36;54.10;101281.00;6215685;23;19951;-85
2022/05/18 12:43:40;;;;;;;;;;;;;;;15.52;53.39;101281.91;6217688;22;19912;-87
2022/05/18 12:46:30;;;;;;;;;;;;;;;15.66;52.56;101278.44;6216386;22;20268;-88
2022/05/18 12:49:03;;;;;;;;;;;;;;;15.68;52.46;101281.81;6152516;22;19912;-86
2022/05/18 12:51:30;;;;;;;;;;;;;;;15.59;51.72;101289.19;6215450;23;20352;-87
2022/05/18 12:54:11;;;;;;;;;;;;;;;15.65;50.97;101297.63;6259123;22;19911;-86
2022/05/18 12:56:38;;;;;;;;;;;;;;;15.61;50.27;101294.41;6254664;22;19912;-86
2022/05/18 12:59:08;;;;;;;;;;;;;;;15.52;50.17;101314.44;6252933;22;19911;-86
2022/05/18 13:01:45;;;;;;;;;;;;;;;15.36;50.98;101316.22;6255602;23;19922;-85
2022/05/18 13:04:10;;;;;;;;;;;;;;;15.58;51.85;101322.69;6213504;22;19916;-87
2022/05/18 13:06:36;;;;;;;;;;;;;;;15.51;51.22;101319.03;6251023;23;19968;-86
2022/05/18 13:09:21;;;;;;;;;;;;;;;15.44;51.61;101312.63;6244510;22;19912;-87
2022/05/18 13:11:49;;;;;;;;;;;;;;;15.36;51.34;101302.69;6291238;22;19919;-84